Main page
METAR-TAF:

METAR-TAF

Airports :

Tehran, Iran

Mehrabad International Airport

latitude: 35-41N, longitude: 051-21E, elevation: 1204 m

Current weather observation

The report was made 18 minutes ago, at 17:00 UTC
Wind 16 kt from the West
Temperature 28°C
Humidity 19%
Pressure 1011 hPa
Visibility 10 km or more
no clouds below 1500 m and no cumulonimbus

METAR: OIII 231700Z 27016KT CAVOK 28/02 Q1010 A2984 NOSIG

Time: 21:48 (17:18 UTC)

Forecast

The report was made 6 hours and 18 minutes ago, at 11:00 UTC
Forecast valid from 23 at 12 UTC to 24 at 18 UTC
Wind 10 kt from the Northwest
Visibility 10 km or more
no clouds below 1500 m and no cumulonimbus
Temporary
from 23 at 12 UTC to 24 at 03 UTC
Wind 19 kt from the West

TAF: OIII 231100Z 2312/2418 32005MPS CAVOK TEMPO 2312/2403 28010MPS

Weather observations and forecasts of more than 4000 airports (METAR and TAF reports).

The available stations are represented by yellow and red dots on the map.

Hover mouse over dot to see the name of the station.

Then click to see weather observations and forecasts.

To change the map : click on the green buttons with a black cross to zoom in, on the green button with a dash to zoom out, or on the green arrows for adjacent maps.


METAR-TAF: